Time;durP1;ratioP1;P1;durP2;ratioP2;P2;SDS_P1;SDS_P2;PMS_P1;PMS_P2;Temp;Humidity;BMP_temperature;BMP_pressure;BME280_temperature;BME280_humidity;BME280_pressure;Samples;Min_cycle;Max_cycle;Signal;HPM_P1;HPM_P2
2022/09/22 00:03:24;;;;;;;1.35;0.65;;;9.40;99.90;;;;;;20957154;28;20443;-80
2022/09/22 00:13:25;;;;;;;1.38;0.70;;;9.30;99.90;;;;;;20933532;28;20109;-80
2022/09/22 00:23:27;;;;;;;1.25;0.57;;;9.30;99.90;;;;;;20970602;28;20608;-80
2022/09/22 00:33:28;;;;;;;2.15;0.82;;;9.20;99.90;;;;;;20982961;28;20066;-80
2022/09/22 00:43:35;;;;;;;1.73;0.88;;;9.10;99.90;;;;;;20875284;28;20051;-80
2022/09/22 00:53:36;;;;;;;1.30;0.80;;;9.10;99.90;;;;;;20865816;28;20037;-80
2022/09/22 01:03:38;;;;;;;3.28;0.90;;;9.00;99.90;;;;;;20899731;28;20037;-81
2022/09/22 01:24:34;;;;;;;1.60;0.67;;;8.80;99.90;;;;;;20960794;28;20108;-39
2022/09/22 01:35:10;;;;;;;2.33;1.13;;;8.80;99.90;;;;;;20978074;28;20811;-39
2022/09/22 01:45:19;;;;;;;2.20;1.05;;;8.80;99.90;;;;;;20895050;28;20036;-39
2022/09/22 01:55:34;;;;;;;2.63;1.30;;;8.70;99.90;;;;;;20971717;28;20086;-39
2022/09/22 02:05:45;;;;;;;1.33;0.80;;;8.70;99.90;;;;;;20979828;28;20200;-39
2022/09/22 02:16:01;;;;;;;2.17;0.85;;;8.60;99.90;;;;;;20974136;28;20033;-39
2022/09/22 02:26:05;;;;;;;1.38;0.68;;;8.50;99.90;;;;;;20976745;28;20105;-39
2022/09/22 02:36:40;;;;;;;1.92;0.93;;;8.40;99.90;;;;;;20982731;28;20036;-39
2022/09/22 02:46:48;;;;;;;3.08;1.83;;;8.40;99.90;;;;;;20978000;28;20644;-39
2022/09/22 02:56:49;;;;;;;1.63;1.05;;;8.30;99.90;;;;;;20975129;28;20081;-39
2022/09/22 03:06:50;;;;;;;3.85;1.48;;;8.30;99.90;;;;;;20973982;28;20063;-39
2022/09/22 03:16:51;;;;;;;2.83;1.10;;;8.20;99.90;;;;;;20953980;28;20040;-39
2022/09/22 03:26:52;;;;;;;2.85;0.73;;;8.20;99.90;;;;;;20968940;28;20130;-39
2022/09/22 03:36:53;;;;;;;2.08;1.30;;;8.10;99.90;;;;;;20964178;28;20387;-39
2022/09/22 03:46:54;;;;;;;3.85;1.40;;;8.00;99.90;;;;;;20963264;28;20105;-39
2022/09/22 03:56:55;;;;;;;10.65;3.08;;;8.00;99.90;;;;;;20961578;28;20036;-39
2022/09/22 04:06:56;;;;;;;2.40;1.25;;;7.90;99.90;;;;;;20975304;28;20133;-39
2022/09/22 04:16:57;;;;;;;2.15;0.73;;;7.90;99.90;;;;;;20964686;28;20391;-39
2022/09/22 04:26:58;;;;;;;3.45;1.05;;;7.80;99.90;;;;;;20963629;28;20051;-39
2022/09/22 04:36:59;;;;;;;4.13;1.52;;;7.80;99.90;;;;;;20960841;28;20468;-39
2022/09/22 04:47:00;;;;;;;4.57;2.25;;;7.70;99.90;;;;;;20970920;28;20036;-39
2022/09/22 04:57:01;;;;;;;3.45;1.15;;;7.60;99.90;;;;;;20951831;28;20063;-39
2022/09/22 05:07:03;;;;;;;5.80;2.15;;;7.60;99.90;;;;;;20944309;28;20152;-39
2022/09/22 05:17:05;;;;;;;1.80;1.25;;;7.60;99.90;;;;;;20949676;28;20052;-39
2022/09/22 05:27:07;;;;;;;3.95;1.00;;;7.50;99.90;;;;;;20943352;28;20075;-39
2022/09/22 05:37:08;;;;;;;3.78;2.13;;;7.50;99.90;;;;;;20954757;28;20117;-39
2022/09/22 05:47:09;;;;;;;3.92;0.88;;;7.50;99.90;;;;;;20956082;28;20032;-39
2022/09/22 05:57:10;;;;;;;3.78;1.00;;;7.40;99.90;;;;;;20963099;28;20087;-39
2022/09/22 06:07:11;;;;;;;2.13;1.00;;;7.50;99.90;;;;;;20963319;28;20036;-39
2022/09/22 06:17:12;;;;;;;3.85;1.48;;;7.60;99.90;;;;;;20970645;28;20099;-39
2022/09/22 06:27:13;;;;;;;5.28;1.92;;;7.70;99.90;;;;;;20979519;28;20044;-39
2022/09/22 06:37:15;;;;;;;9.07;2.65;;;7.80;99.90;;;;;;20986330;28;20043;-39
2022/09/22 06:47:16;;;;;;;8.57;3.20;;;8.00;99.90;;;;;;20979414;28;20044;-39
2022/09/22 06:57:17;;;;;;;9.55;1.92;;;8.20;99.90;;;;;;20971230;28;20081;-39
2022/09/22 07:07:18;;;;;;;4.10;2.35;;;8.60;99.90;;;;;;20975824;28;20533;-40
2022/09/22 07:17:19;;;;;;;8.60;4.03;;;8.90;99.90;;;;;;20974620;28;20039;-40
2022/09/22 07:27:24;;;;;;;5.95;3.55;;;9.30;99.90;;;;;;20962714;28;20759;-39
2022/09/22 07:37:28;;;;;;;6.50;3.55;;;9.80;99.90;;;;;;20971945;28;21896;-40
2022/09/22 07:57:57;;;;;;;7.05;4.45;;;10.90;99.90;;;;;;20964391;28;20032;-39
2022/09/22 08:08:01;;;;;;;10.60;3.78;;;11.50;99.90;;;;;;20959323;28;20071;-39
2022/09/22 08:18:02;;;;;;;7.90;3.75;;;12.00;99.90;;;;;;20960361;28;20400;-38
2022/09/22 08:28:03;;;;;;;4.90;2.38;;;12.50;99.90;;;;;;20961545;28;20045;-38
2022/09/22 08:38:04;;;;;;;4.35;1.95;;;13.20;99.90;;;;;;20953129;28;21362;-38
2022/09/22 08:59:03;;;;;;;3.47;1.23;;;14.20;99.90;;;;;;20940006;28;20032;-39
2022/09/22 09:09:11;;;;;;;4.38;1.40;;;14.70;99.90;;;;;;20919433;28;20502;-39
2022/09/22 09:19:21;;;;;;;3.53;1.73;;;15.00;99.90;;;;;;20947783;28;20032;-38
2022/09/22 09:29:28;;;;;;;2.50;1.10;;;15.00;99.90;;;;;;20940539;28;21651;-38
2022/09/22 09:39:32;;;;;;;2.08;1.20;;;15.30;99.90;;;;;;20949244;28;20062;-38
2022/09/22 09:49:33;;;;;;;1.77;0.85;;;15.40;99.90;;;;;;20928502;28;20189;-38
2022/09/22 10:10:28;;;;;;;2.60;1.40;;;15.80;99.90;;;;;;20951907;28;20320;-38
2022/09/22 10:20:31;;;;;;;2.38;1.20;;;16.20;99.90;;;;;;20974235;28;22341;-38
2022/09/22 10:30:36;;;;;;;2.60;1.00;;;16.50;99.90;;;;;;20979464;28;20089;-38
2022/09/22 10:40:40;;;;;;;1.45;0.70;;;16.80;99.90;;;;;;20979756;28;20503;-38
2022/09/22 10:50:57;;;;;;;3.38;1.10;;;16.90;99.90;;;;;;20973861;28;20044;-38
2022/09/22 11:01:17;;;;;;;2.17;0.90;;;17.30;99.90;;;;;;20966256;28;20044;-38
2022/09/22 11:22:16;;;;;;;2.17;0.88;;;18.50;99.90;;;;;;20969267;28;20059;-38
2022/09/22 11:32:36;;;;;;;2.63;0.55;;;19.20;99.90;;;;;;20967043;28;20102;-38
2022/09/22 11:42:59;;;;;;;2.17;0.82;;;19.80;99.90;;;;;;20967799;28;20572;-38
2022/09/22 11:53:12;;;;;;;1.17;0.30;;;19.90;99.20;;;;;;20924156;28;20128;-38
2022/09/22 12:03:26;;;;;;;0.30;0.20;;;20.30;98.50;;;;;;20958444;28;20310;-38
2022/09/22 12:13:29;;;;;;;0.85;0.38;;;21.00;98.00;;;;;;20948511;28;22261;-38
2022/09/22 12:23:42;;;;;;;0.85;0.40;;;21.00;97.60;;;;;;20962152;28;20048;-38
2022/09/22 12:33:50;;;;;;;2.00;0.82;;;20.70;98.30;;;;;;20953865;28;20572;-38
2022/09/22 12:43:51;;;;;;;1.63;0.55;;;21.10;97.50;;;;;;20967610;28;20047;-36
2022/09/22 12:54:20;;;;;;;1.75;0.60;;;20.70;97.50;;;;;;20937566;28;20490;-38
2022/09/22 13:04:21;;;;;;;0.68;0.30;;;21.40;97.40;;;;;;20957180;28;20044;-38
2022/09/22 13:14:56;;;;;;;0.80;0.40;;;21.70;96.30;;;;;;20930717;28;21791;-38
2022/09/22 13:25:11;;;;;;;1.67;0.40;;;21.90;95.00;;;;;;20964488;28;20036;-38
2022/09/22 13:35:36;;;;;;;0.68;0.28;;;21.90;95.80;;;;;;20956564;28;20043;-38
2022/09/22 13:45:38;;;;;;;3.63;0.30;;;21.20;95.90;;;;;;20951940;28;20304;-38
2022/09/22 13:55:39;;;;;;;1.40;0.50;;;21.80;94.60;;;;;;20960453;28;20389;-38
2022/09/22 14:05:40;;;;;;;3.92;0.68;;;21.10;96.20;;;;;;20963609;28;20052;-38
2022/09/22 14:15:42;;;;;;;1.25;0.30;;;21.60;98.00;;;;;;20956934;28;20156;-39
2022/09/22 14:25:43;;;;;;;1.27;0.50;;;21.70;96.10;;;;;;20952765;28;20125;-38
2022/09/22 14:35:44;;;;;;;0.50;0.20;;;20.30;96.70;;;;;;20927692;28;20164;-38
2022/09/22 14:45:57;;;;;;;1.13;0.50;;;20.10;96.80;;;;;;20952002;28;20193;-38
2022/09/22 14:56:10;;;;;;;1.05;0.40;;;20.00;97.40;;;;;;20955356;28;20066;-38
2022/09/22 15:06:13;;;;;;;0.98;0.50;;;19.60;97.30;;;;;;20951824;28;20488;-38
2022/09/22 15:16:37;;;;;;;0.45;0.15;;;19.60;97.50;;;;;;20952828;28;20512;-38
2022/09/22 15:26:40;;;;;;;1.05;0.50;;;19.30;97.90;;;;;;20962188;28;20833;-38
2022/09/22 15:36:45;;;;;;;2.17;0.25;;;19.20;96.40;;;;;;20959295;28;20278;-38
2022/09/22 15:46:50;;;;;;;0.70;0.30;;;18.90;97.90;;;;;;20961529;28;20616;-38
2022/09/22 15:56:53;;;;;;;0.80;0.30;;;18.70;98.20;;;;;;20942190;28;20222;-38
2022/09/22 16:06:57;;;;;;;1.08;0.30;;;18.50;97.80;;;;;;20929578;28;20418;-38
2022/09/22 16:16:58;;;;;;;0.90;0.30;;;18.40;98.90;;;;;;20947268;28;20071;-38
2022/09/22 16:27:04;;;;;;;0.20;0.10;;;18.10;99.90;;;;;;20946778;28;20063;-38
2022/09/22 16:37:05;;;;;;;0.65;0.30;;;17.80;99.90;;;;;;20968674;28;20033;-38
2022/09/22 16:47:07;;;;;;;1.00;0.40;;;17.50;99.90;;;;;;20964144;28;20085;-38
2022/09/22 16:57:08;;;;;;;0.70;0.28;;;17.30;99.90;;;;;;20948935;28;20117;-36
2022/09/22 17:07:09;;;;;;;0.95;0.47;;;17.10;99.90;;;;;;20934950;28;20041;-36
2022/09/22 17:17:10;;;;;;;2.30;0.40;;;16.90;99.90;;;;;;20922432;28;20064;-36
2022/09/22 17:27:11;;;;;;;1.08;0.50;;;16.60;99.90;;;;;;20877452;28;20703;-36
2022/09/22 17:37:14;;;;;;;2.20;0.80;;;16.30;99.90;;;;;;20918768;28;21539;-37
2022/09/22 17:57:40;;;;;;;2.97;0.95;;;15.50;99.90;;;;;;20925024;28;21068;-38
2022/09/22 18:07:42;;;;;;;1.83;1.00;;;15.20;99.90;;;;;;20916293;28;20495;-38
2022/09/22 18:17:43;;;;;;;1.23;0.70;;;14.90;99.90;;;;;;20924328;28;20343;-37
2022/09/22 18:27:47;;;;;;;2.38;1.02;;;14.60;99.90;;;;;;20932927;28;20078;-37
2022/09/22 18:37:49;;;;;;;2.35;1.05;;;14.50;99.90;;;;;;20934290;28;20036;-38
2022/09/22 18:47:50;;;;;;;3.78;1.50;;;14.30;99.90;;;;;;20969527;28;20323;-38
2022/09/22 18:57:52;;;;;;;4.13;1.70;;;14.20;99.90;;;;;;20974288;28;20028;-38
2022/09/22 19:07:54;;;;;;;5.97;3.10;;;14.10;99.90;;;;;;20953345;28;20190;-37
2022/09/22 19:17:54;;;;;;;9.25;4.68;;;14.00;99.90;;;;;;20939563;28;20054;-37
2022/09/22 19:27:55;;;;;;;13.27;7.72;;;13.90;99.90;;;;;;20949571;28;20044;-38
2022/09/22 19:37:57;;;;;;;6.88;3.65;;;13.80;99.90;;;;;;20938314;28;20767;-38
2022/09/22 19:47:58;;;;;;;3.83;2.13;;;13.70;99.90;;;;;;20935742;28;20127;-38
2022/09/22 19:57:59;;;;;;;4.80;2.05;;;13.50;99.90;;;;;;20950382;28;20186;-38
2022/09/22 20:08:00;;;;;;;4.15;1.83;;;13.40;99.90;;;;;;20961218;28;20044;-38
2022/09/22 20:18:01;;;;;;;3.90;2.35;;;13.20;99.90;;;;;;20954812;28;20119;-37
2022/09/22 20:28:02;;;;;;;2.80;1.48;;;13.10;99.90;;;;;;20939536;28;20063;-38
2022/09/22 20:38:03;;;;;;;4.78;1.25;;;13.10;99.90;;;;;;20938152;28;20085;-37
2022/09/22 20:48:04;;;;;;;9.18;2.40;;;12.90;99.90;;;;;;20948579;28;20089;-37
2022/09/22 20:58:05;;;;;;;2.47;1.65;;;12.80;99.90;;;;;;20965029;28;20063;-37
2022/09/22 21:18:26;;;;;;;2.15;1.13;;;12.60;99.90;;;;;;20958787;28;21781;-37
2022/09/22 21:28:28;;;;;;;2.13;1.20;;;12.50;99.90;;;;;;20953937;28;20144;-38
2022/09/22 21:38:30;;;;;;;2.40;1.50;;;12.40;99.90;;;;;;20960845;28;20040;-38
2022/09/22 21:48:32;;;;;;;4.53;2.10;;;12.30;99.90;;;;;;20961167;28;20078;-38
2022/09/22 21:58:35;;;;;;;2.30;1.15;;;12.20;99.90;;;;;;20972337;28;20098;-38
2022/09/22 22:08:44;;;;;;;2.38;1.02;;;12.10;99.90;;;;;;20971526;28;21139;-39
2022/09/22 22:18:45;;;;;;;3.35;1.70;;;12.00;99.90;;;;;;20968470;28;20787;-39
2022/09/22 22:28:48;;;;;;;1.80;1.48;;;11.90;99.90;;;;;;20971622;28;20402;-38
2022/09/22 22:38:51;;;;;;;3.25;1.40;;;11.80;99.90;;;;;;20969768;28;20055;-38
2022/09/22 22:48:52;;;;;;;2.03;1.13;;;11.70;99.90;;;;;;20966642;28;20115;-38
2022/09/22 22:58:54;;;;;;;2.53;1.55;;;11.70;99.90;;;;;;20964611;28;20274;-38
2022/09/22 23:08:55;;;;;;;4.10;2.20;;;11.60;99.90;;;;;;20968067;28;20154;-38
2022/09/22 23:19:00;;;;;;;3.85;1.63;;;11.60;99.90;;;;;;20969109;28;20153;-39
2022/09/22 23:29:02;;;;;;;4.38;2.03;;;11.50;99.90;;;;;;20971784;28;20180;-38
2022/09/22 23:39:03;;;;;;;3.15;1.77;;;11.50;99.90;;;;;;20965513;28;20094;-38
2022/09/22 23:49:05;;;;;;;3.95;2.65;;;11.40;99.90;;;;;;20968071;28;20333;-38
2022/09/22 23:59:06;;;;;;;3.95;2.70;;;11.40;99.90;;;;;;20973736;28;20521;-37
